sensor_id;sensor_type;location;lat;lon;timestamp;pressure;altitude;pressure_sealevel;temperature;humidity
65832;BME280;52593;42.648;23.332;2023-01-31T00:01:37;94052.34;;;-1.10;75.62
65832;BME280;52593;42.648;23.332;2023-01-31T00:04:05;94061.66;;;-0.84;73.98
65832;BME280;52593;42.648;23.332;2023-01-31T00:06:36;94066.84;;;-0.94;74.44
65832;BME280;52593;42.648;23.332;2023-01-31T00:09:03;94069.94;;;-0.89;74.44
65832;BME280;52593;42.648;23.332;2023-01-31T00:11:30;94060.94;;;-1.08;75.12
65832;BME280;52593;42.648;23.332;2023-01-31T00:13:57;94069.06;;;-1.11;75.36
65832;BME280;52593;42.648;23.332;2023-01-31T00:16:23;94056.91;;;-1.12;75.00
65832;BME280;52593;42.648;23.332;2023-01-31T00:18:50;94066.69;;;-1.14;75.66
65832;BME280;52593;42.648;23.332;2023-01-31T00:21:23;94058.81;;;-1.14;75.71
65832;BME280;52593;42.648;23.332;2023-01-31T00:23:50;94055.81;;;-1.09;75.06
65832;BME280;52593;42.648;23.332;2023-01-31T00:26:17;94053.31;;;-1.11;74.91
65832;BME280;52593;42.648;23.332;2023-01-31T00:28:44;94054.19;;;-1.21;75.18
65832;BME280;52593;42.648;23.332;2023-01-31T00:31:11;94062.19;;;-1.23;75.58
65832;BME280;52593;42.648;23.332;2023-01-31T00:33:37;94061.69;;;-1.17;74.05
65832;BME280;52593;42.648;23.332;2023-01-31T00:36:09;94064.19;;;-1.15;73.96
65832;BME280;52593;42.648;23.332;2023-01-31T00:38:35;94066.53;;;-1.01;72.81
65832;BME280;52593;42.648;23.332;2023-01-31T00:41:01;94058.19;;;-1.06;72.51
65832;BME280;52593;42.648;23.332;2023-01-31T00:43:28;94069.72;;;-0.97;73.16
65832;BME280;52593;42.648;23.332;2023-01-31T00:45:53;94064.03;;;-1.02;72.56
65832;BME280;52593;42.648;23.332;2023-01-31T00:48:19;94066.41;;;-0.99;74.08
65832;BME280;52593;42.648;23.332;2023-01-31T00:50:45;94067.88;;;-1.06;74.37
65832;BME280;52593;42.648;23.332;2023-01-31T00:53:10;94065.31;;;-0.97;74.01
65832;BME280;52593;42.648;23.332;2023-01-31T00:55:35;94061.66;;;-1.05;74.86
65832;BME280;52593;42.648;23.332;2023-01-31T00:58:02;94058.34;;;-0.86;73.59
65832;BME280;52593;42.648;23.332;2023-01-31T01:00:28;94057.16;;;-0.82;74.20
65832;BME280;52593;42.648;23.332;2023-01-31T01:02:53;94048.41;;;-0.83;73.01
65832;BME280;52593;42.648;23.332;2023-01-31T01:05:18;94051.91;;;-0.94;73.38
65832;BME280;52593;42.648;23.332;2023-01-31T01:07:44;94050.78;;;-1.01;74.08
65832;BME280;52593;42.648;23.332;2023-01-31T01:10:10;94060.84;;;-0.85;73.24
65832;BME280;52593;42.648;23.332;2023-01-31T01:12:35;94075.69;;;-0.95;73.67
65832;BME280;52593;42.648;23.332;2023-01-31T01:15:01;94073.00;;;-1.05;73.75
65832;BME280;52593;42.648;23.332;2023-01-31T01:17:26;94076.03;;;-1.21;74.62
65832;BME280;52593;42.648;23.332;2023-01-31T01:19:52;94079.03;;;-1.37;76.40
65832;BME280;52593;42.648;23.332;2023-01-31T01:22:17;94073.56;;;-1.34;75.90
65832;BME280;52593;42.648;23.332;2023-01-31T01:24:43;94046.97;;;-1.40;74.61
65832;BME280;52593;42.648;23.332;2023-01-31T01:27:09;94062.72;;;-1.40;75.40
65832;BME280;52593;42.648;23.332;2023-01-31T01:29:34;94047.34;;;-1.56;74.24
65832;BME280;52593;42.648;23.332;2023-01-31T01:32:00;94057.00;;;-1.46;74.13
65832;BME280;52593;42.648;23.332;2023-01-31T01:34:25;94041.44;;;-1.26;68.83
65832;BME280;52593;42.648;23.332;2023-01-31T01:36:51;94033.66;;;-1.16;66.01
65832;BME280;52593;42.648;23.332;2023-01-31T01:39:16;94027.34;;;-0.93;64.36
65832;BME280;52593;42.648;23.332;2023-01-31T01:41:42;94019.97;;;-0.78;61.54
65832;BME280;52593;42.648;23.332;2023-01-31T01:47:37;94020.97;;;-0.48;57.46
65832;BME280;52593;42.648;23.332;2023-01-31T01:50:29;94027.19;;;-0.28;55.03
65832;BME280;52593;42.648;23.332;2023-01-31T01:53:05;94039.91;;;-0.02;53.70
65832;BME280;52593;42.648;23.332;2023-01-31T01:55:38;94038.41;;;0.05;52.85
65832;BME280;52593;42.648;23.332;2023-01-31T01:58:14;94026.94;;;0.06;53.21
65832;BME280;52593;42.648;23.332;2023-01-31T02:00:40;94028.31;;;0.10;53.30
65832;BME280;52593;42.648;23.332;2023-01-31T02:03:06;94031.22;;;0.07;54.12
65832;BME280;52593;42.648;23.332;2023-01-31T02:05:37;94022.75;;;0.04;52.41
65832;BME280;52593;42.648;23.332;2023-01-31T02:08:04;94011.03;;;0.08;50.93
65832;BME280;52593;42.648;23.332;2023-01-31T02:10:35;94031.41;;;0.15;51.04
65832;BME280;52593;42.648;23.332;2023-01-31T02:13:02;94030.53;;;0.15;51.19
65832;BME280;52593;42.648;23.332;2023-01-31T02:15:28;94035.53;;;0.18;50.67
65832;BME280;52593;42.648;23.332;2023-01-31T02:17:54;94036.06;;;0.12;50.76
65832;BME280;52593;42.648;23.332;2023-01-31T02:20:33;94043.13;;;0.02;51.40
65832;BME280;52593;42.648;23.332;2023-01-31T02:23:37;94055.69;;;-0.02;51.52
65832;BME280;52593;42.648;23.332;2023-01-31T02:37:20;94038.75;;;-0.09;50.62
65832;BME280;52593;42.648;23.332;2023-01-31T02:40:25;94040.44;;;-0.08;50.55
65832;BME280;52593;42.648;23.332;2023-01-31T02:43:00;94036.91;;;-0.19;51.53
65832;BME280;52593;42.648;23.332;2023-01-31T02:56:15;94056.16;;;-0.18;53.71
65832;BME280;52593;42.648;23.332;2023-01-31T03:01:24;94066.69;;;-0.18;55.01
65832;BME280;52593;42.648;23.332;2023-01-31T03:03:57;94077.72;;;-0.24;55.60
65832;BME280;52593;42.648;23.332;2023-01-31T03:11:16;94097.53;;;-0.20;57.17
65832;BME280;52593;42.648;23.332;2023-01-31T03:16:50;94102.72;;;-0.30;59.01
65832;BME280;52593;42.648;23.332;2023-01-31T03:19:47;94102.84;;;-0.31;60.05
65832;BME280;52593;42.648;23.332;2023-01-31T03:22:25;94106.19;;;-0.29;60.58
65832;BME280;52593;42.648;23.332;2023-01-31T03:24:52;94099.16;;;-0.29;60.89
65832;BME280;52593;42.648;23.332;2023-01-31T03:27:19;94106.06;;;-0.28;60.89
65832;BME280;52593;42.648;23.332;2023-01-31T03:29:45;94108.63;;;-0.38;62.54
65832;BME280;52593;42.648;23.332;2023-01-31T03:32:30;94112.72;;;-0.45;63.58
65832;BME280;52593;42.648;23.332;2023-01-31T03:34:58;94123.50;;;-0.48;65.50
65832;BME280;52593;42.648;23.332;2023-01-31T03:40:06;94130.94;;;-0.53;66.68
65832;BME280;52593;42.648;23.332;2023-01-31T03:42:58;94135.63;;;-0.57;67.49
65832;BME280;52593;42.648;23.332;2023-01-31T03:45:35;94142.41;;;-0.54;67.42
65832;BME280;52593;42.648;23.332;2023-01-31T03:48:04;94146.44;;;-0.50;68.71
65832;BME280;52593;42.648;23.332;2023-01-31T03:50:43;94145.88;;;-0.53;68.81
65832;BME280;52593;42.648;23.332;2023-01-31T03:55:53;94152.09;;;-0.55;70.17
65832;BME280;52593;42.648;23.332;2023-01-31T03:58:22;94178.50;;;-0.56;70.77
65832;BME280;52593;42.648;23.332;2023-01-31T04:00:50;94155.00;;;-0.69;71.11
65832;BME280;52593;42.648;23.332;2023-01-31T04:03:27;94153.22;;;-0.68;71.33
65832;BME280;52593;42.648;23.332;2023-01-31T04:05:55;94153.91;;;-0.66;72.39
65832;BME280;52593;42.648;23.332;2023-01-31T04:08:20;94155.97;;;-0.70;72.48
65832;BME280;52593;42.648;23.332;2023-01-31T04:10:46;94156.09;;;-0.72;72.92
65832;BME280;52593;42.648;23.332;2023-01-31T04:13:12;94158.59;;;-0.70;72.22
65832;BME280;52593;42.648;23.332;2023-01-31T04:15:37;94169.66;;;-0.55;72.55
65832;BME280;52593;42.648;23.332;2023-01-31T04:18:02;94169.94;;;-0.69;72.91
65832;BME280;52593;42.648;23.332;2023-01-31T04:20:28;94168.50;;;-0.74;73.02
65832;BME280;52593;42.648;23.332;2023-01-31T04:22:53;94170.34;;;-0.85;74.00
65832;BME280;52593;42.648;23.332;2023-01-31T04:25:19;94183.25;;;-0.94;75.02
65832;BME280;52593;42.648;23.332;2023-01-31T04:27:44;94180.03;;;-0.97;74.83
65832;BME280;52593;42.648;23.332;2023-01-31T04:30:10;94189.09;;;-1.01;75.48
65832;BME280;52593;42.648;23.332;2023-01-31T04:32:35;94198.09;;;-1.04;76.05
65832;BME280;52593;42.648;23.332;2023-01-31T04:35:01;94205.22;;;-1.06;75.77
65832;BME280;52593;42.648;23.332;2023-01-31T04:37:26;94202.72;;;-1.08;76.38
65832;BME280;52593;42.648;23.332;2023-01-31T04:39:52;94197.59;;;-1.09;77.06
65832;BME280;52593;42.648;23.332;2023-01-31T04:42:17;94203.81;;;-1.10;77.33
65832;BME280;52593;42.648;23.332;2023-01-31T04:44:42;94210.84;;;-1.11;76.93
65832;BME280;52593;42.648;23.332;2023-01-31T04:47:08;94195.59;;;-1.17;77.94
65832;BME280;52593;42.648;23.332;2023-01-31T04:49:33;94205.25;;;-1.17;78.23
65832;BME280;52593;42.648;23.332;2023-01-31T04:51:58;94218.25;;;-1.16;78.05
65832;BME280;52593;42.648;23.332;2023-01-31T04:54:24;94224.59;;;-1.18;78.29
65832;BME280;52593;42.648;23.332;2023-01-31T04:56:49;94215.06;;;-1.19;78.10
65832;BME280;52593;42.648;23.332;2023-01-31T04:59:15;94205.00;;;-1.14;78.22
65832;BME280;52593;42.648;23.332;2023-01-31T05:01:40;94202.28;;;-1.13;78.51
65832;BME280;52593;42.648;23.332;2023-01-31T05:04:06;94212.06;;;-1.15;77.77
65832;BME280;52593;42.648;23.332;2023-01-31T05:06:31;94211.22;;;-1.15;77.92
65832;BME280;52593;42.648;23.332;2023-01-31T05:08:57;94210.16;;;-1.13;77.67
65832;BME280;52593;42.648;23.332;2023-01-31T05:11:25;94210.75;;;-1.20;77.94
65832;BME280;52593;42.648;23.332;2023-01-31T05:13:51;94209.19;;;-1.12;77.26
65832;BME280;52593;42.648;23.332;2023-01-31T05:16:16;94211.47;;;-1.07;77.26
65832;BME280;52593;42.648;23.332;2023-01-31T05:18:41;94213.34;;;-1.09;78.14
65832;BME280;52593;42.648;23.332;2023-01-31T05:21:07;94201.66;;;-1.05;77.75
65832;BME280;52593;42.648;23.332;2023-01-31T05:23:33;94206.44;;;-1.10;76.88
65832;BME280;52593;42.648;23.332;2023-01-31T05:25:59;94205.84;;;-1.02;76.65
65832;BME280;52593;42.648;23.332;2023-01-31T05:28:24;94224.34;;;-1.04;77.16
65832;BME280;52593;42.648;23.332;2023-01-31T05:30:53;94226.50;;;-0.98;76.66
65832;BME280;52593;42.648;23.332;2023-01-31T05:33:25;94221.59;;;-1.02;77.27
65832;BME280;52593;42.648;23.332;2023-01-31T05:35:51;94221.69;;;-0.93;77.01
65832;BME280;52593;42.648;23.332;2023-01-31T05:38:17;94223.50;;;-0.93;77.00
65832;BME280;52593;42.648;23.332;2023-01-31T05:40:42;94220.13;;;-0.95;76.63
65832;BME280;52593;42.648;23.332;2023-01-31T05:43:08;94225.88;;;-0.90;78.01
65832;BME280;52593;42.648;23.332;2023-01-31T05:45:33;94230.53;;;-0.82;76.37
65832;BME280;52593;42.648;23.332;2023-01-31T05:47:59;94223.50;;;-0.93;76.19
65832;BME280;52593;42.648;23.332;2023-01-31T05:50:24;94229.91;;;-0.86;75.79
65832;BME280;52593;42.648;23.332;2023-01-31T05:52:51;94226.78;;;-0.80;76.05
65832;BME280;52593;42.648;23.332;2023-01-31T05:55:17;94237.91;;;-0.76;75.96
65832;BME280;52593;42.648;23.332;2023-01-31T05:57:42;94225.84;;;-0.79;76.08
65832;BME280;52593;42.648;23.332;2023-01-31T06:00:08;94234.91;;;-0.83;76.03
65832;BME280;52593;42.648;23.332;2023-01-31T06:02:34;94232.78;;;-0.89;76.22
65832;BME280;52593;42.648;23.332;2023-01-31T06:04:59;94243.03;;;-0.75;78.70
65832;BME280;52593;42.648;23.332;2023-01-31T06:07:25;94237.66;;;-0.73;78.56
65832;BME280;52593;42.648;23.332;2023-01-31T06:09:50;94240.16;;;-0.72;77.08
65832;BME280;52593;42.648;23.332;2023-01-31T06:12:16;94245.31;;;-0.70;77.63
65832;BME280;52593;42.648;23.332;2023-01-31T06:14:41;94243.13;;;-0.65;77.21
65832;BME280;52593;42.648;23.332;2023-01-31T06:17:06;94246.63;;;-0.64;76.42
65832;BME280;52593;42.648;23.332;2023-01-31T06:19:32;94251.63;;;-0.61;76.95
65832;BME280;52593;42.648;23.332;2023-01-31T06:21:57;94250.16;;;-0.54;76.57
65832;BME280;52593;42.648;23.332;2023-01-31T06:24:23;94251.44;;;-0.48;75.42
65832;BME280;52593;42.648;23.332;2023-01-31T06:26:48;94259.59;;;-0.51;76.53
65832;BME280;52593;42.648;23.332;2023-01-31T06:29:13;94264.94;;;-0.42;75.46
65832;BME280;52593;42.648;23.332;2023-01-31T06:31:42;94263.16;;;-0.41;76.03
65832;BME280;52593;42.648;23.332;2023-01-31T06:34:08;94266.41;;;-0.49;75.48
65832;BME280;52593;42.648;23.332;2023-01-31T06:36:33;94261.72;;;-0.45;75.88
65832;BME280;52593;42.648;23.332;2023-01-31T06:38:58;94262.91;;;-0.38;75.91
65832;BME280;52593;42.648;23.332;2023-01-31T06:41:24;94260.16;;;-0.37;75.30
65832;BME280;52593;42.648;23.332;2023-01-31T06:43:49;94255.34;;;-0.31;75.81
65832;BME280;52593;42.648;23.332;2023-01-31T06:46:16;94269.81;;;-0.37;75.62
65832;BME280;52593;42.648;23.332;2023-01-31T06:48:41;94268.50;;;-0.31;75.99
65832;BME280;52593;42.648;23.332;2023-01-31T06:51:08;94272.78;;;-0.30;76.66
65832;BME280;52593;42.648;23.332;2023-01-31T06:53:34;94277.94;;;-0.29;75.90
65832;BME280;52593;42.648;23.332;2023-01-31T06:55:59;94285.47;;;-0.36;76.47
65832;BME280;52593;42.648;23.332;2023-01-31T06:58:24;94284.50;;;-0.34;76.81
65832;BME280;52593;42.648;23.332;2023-01-31T07:00:50;94282.09;;;-0.26;76.78
65832;BME280;52593;42.648;23.332;2023-01-31T07:03:15;94282.84;;;-0.36;76.63
65832;BME280;52593;42.648;23.332;2023-01-31T07:05:44;94281.63;;;-0.31;76.47
65832;BME280;52593;42.648;23.332;2023-01-31T07:08:09;94284.47;;;-0.23;76.55
65832;BME280;52593;42.648;23.332;2023-01-31T07:10:35;94286.84;;;-0.20;76.58
65832;BME280;52593;42.648;23.332;2023-01-31T07:13:00;94278.00;;;-0.19;76.01
65832;BME280;52593;42.648;23.332;2023-01-31T07:15:26;94270.13;;;-0.19;75.46
65832;BME280;52593;42.648;23.332;2023-01-31T07:17:56;94293.53;;;-0.16;75.38
65832;BME280;52593;42.648;23.332;2023-01-31T07:20:22;94285.53;;;-0.14;74.93
65832;BME280;52593;42.648;23.332;2023-01-31T07:22:53;94293.66;;;-0.17;75.42
65832;BME280;52593;42.648;23.332;2023-01-31T07:25:19;94297.38;;;-0.20;75.55
65832;BME280;52593;42.648;23.332;2023-01-31T07:27:44;94285.69;;;-0.27;76.04
65832;BME280;52593;42.648;23.332;2023-01-31T07:30:10;94286.28;;;-0.24;75.80
65832;BME280;52593;42.648;23.332;2023-01-31T07:32:35;94288.78;;;-0.22;76.56
65832;BME280;52593;42.648;23.332;2023-01-31T07:35:01;94284.78;;;-0.05;76.58
65832;BME280;52593;42.648;23.332;2023-01-31T07:37:26;94288.44;;;0.04;75.71
65832;BME280;52593;42.648;23.332;2023-01-31T07:39:51;94281.25;;;0.06;75.41
65832;BME280;52593;42.648;23.332;2023-01-31T07:42:17;94285.00;;;0.03;76.23
65832;BME280;52593;42.648;23.332;2023-01-31T07:44:42;94284.19;;;-0.09;75.72
65832;BME280;52593;42.648;23.332;2023-01-31T07:47:08;94283.94;;;-0.06;76.21
65832;BME280;52593;42.648;23.332;2023-01-31T07:49:33;94277.94;;;-0.08;76.57
65832;BME280;52593;42.648;23.332;2023-01-31T07:52:00;94280.47;;;-0.06;76.59
65832;BME280;52593;42.648;23.332;2023-01-31T07:54:25;94282.00;;;-0.04;76.91
65832;BME280;52593;42.648;23.332;2023-01-31T07:56:51;94287.81;;;0.11;76.57
65832;BME280;52593;42.648;23.332;2023-01-31T07:59:16;94283.31;;;0.02;76.81
65832;BME280;52593;42.648;23.332;2023-01-31T08:01:42;94278.06;;;0.02;77.63
65832;BME280;52593;42.648;23.332;2023-01-31T08:04:26;94274.00;;;-0.02;77.38
65832;BME280;52593;42.648;23.332;2023-01-31T08:06:53;94278.06;;;0.02;77.95
65832;BME280;52593;42.648;23.332;2023-01-31T08:09:19;94283.69;;;-0.03;78.11
65832;BME280;52593;42.648;23.332;2023-01-31T08:11:45;94278.59;;;-0.15;77.84
65832;BME280;52593;42.648;23.332;2023-01-31T08:14:10;94275.94;;;-0.15;78.43
65832;BME280;52593;42.648;23.332;2023-01-31T08:16:36;94282.75;;;-0.13;78.64
65832;BME280;52593;42.648;23.332;2023-01-31T08:19:01;94268.59;;;-0.01;78.54
65832;BME280;52593;42.648;23.332;2023-01-31T08:21:27;94268.59;;;-0.01;78.21
65832;BME280;52593;42.648;23.332;2023-01-31T08:23:52;94280.00;;;0.00;77.64
65832;BME280;52593;42.648;23.332;2023-01-31T08:26:19;94264.28;;;-0.02;78.06
65832;BME280;52593;42.648;23.332;2023-01-31T08:28:46;94257.94;;;0.12;77.50
65832;BME280;52593;42.648;23.332;2023-01-31T08:31:15;94262.16;;;0.25;76.39
65832;BME280;52593;42.648;23.332;2023-01-31T08:33:41;94272.69;;;0.25;76.85
65832;BME280;52593;42.648;23.332;2023-01-31T08:36:10;94260.34;;;0.25;76.18
65832;BME280;52593;42.648;23.332;2023-01-31T08:38:35;94266.78;;;0.32;76.27
65832;BME280;52593;42.648;23.332;2023-01-31T08:41:01;94255.34;;;0.43;75.42
65832;BME280;52593;42.648;23.332;2023-01-31T08:43:26;94261.63;;;0.52;75.22
65832;BME280;52593;42.648;23.332;2023-01-31T08:45:51;94265.81;;;0.55;74.70
65832;BME280;52593;42.648;23.332;2023-01-31T08:48:17;94256.69;;;0.38;75.23
65832;BME280;52593;42.648;23.332;2023-01-31T08:50:42;94256.19;;;0.44;75.31
65832;BME280;52593;42.648;23.332;2023-01-31T08:53:08;94255.09;;;0.46;75.78
65832;BME280;52593;42.648;23.332;2023-01-31T08:55:35;94269.28;;;0.34;75.38
65832;BME280;52593;42.648;23.332;2023-01-31T08:58:01;94269.34;;;0.44;75.74
65832;BME280;52593;42.648;23.332;2023-01-31T09:00:27;94253.03;;;0.50;75.91
65832;BME280;52593;42.648;23.332;2023-01-31T09:02:57;94261.53;;;0.32;75.23
65832;BME280;52593;42.648;23.332;2023-01-31T09:05:25;94257.25;;;0.41;74.61
65832;BME280;52593;42.648;23.332;2023-01-31T09:07:51;94262.78;;;0.59;75.43
65832;BME280;52593;42.648;23.332;2023-01-31T09:10:17;94253.41;;;0.66;73.40
65832;BME280;52593;42.648;23.332;2023-01-31T09:12:43;94257.38;;;0.92;72.94
65832;BME280;52593;42.648;23.332;2023-01-31T09:15:09;94272.47;;;1.11;71.79
65832;BME280;52593;42.648;23.332;2023-01-31T09:17:35;94272.47;;;1.11;71.68
65832;BME280;52593;42.648;23.332;2023-01-31T09:20:00;94255.88;;;0.89;71.92
65832;BME280;52593;42.648;23.332;2023-01-31T09:22:32;94260.66;;;1.05;71.78
65832;BME280;52593;42.648;23.332;2023-01-31T09:24:58;94255.50;;;1.03;71.62
65832;BME280;52593;42.648;23.332;2023-01-31T09:27:24;94238.28;;;0.99;70.95
65832;BME280;52593;42.648;23.332;2023-01-31T09:29:49;94248.91;;;1.19;70.79
65832;BME280;52593;42.648;23.332;2023-01-31T09:32:15;94265.25;;;1.22;70.19
65832;BME280;52593;42.648;23.332;2023-01-31T09:34:40;94244.03;;;1.24;70.17
65832;BME280;52593;42.648;23.332;2023-01-31T09:37:06;94266.41;;;1.30;70.81
65832;BME280;52593;42.648;23.332;2023-01-31T09:39:31;94229.84;;;1.05;70.42
65832;BME280;52593;42.648;23.332;2023-01-31T09:44:41;94224.44;;;1.07;70.86
65832;BME280;52593;42.648;23.332;2023-01-31T09:50:32;94223.69;;;1.26;71.08
65832;BME280;52593;42.648;23.332;2023-01-31T09:52:59;94214.00;;;1.36;69.51
65832;BME280;52593;42.648;23.332;2023-01-31T10:01:21;94210.63;;;1.24;70.34
65832;BME280;52593;42.648;23.332;2023-01-31T10:06:23;94202.09;;;1.71;67.55
65832;BME280;52593;42.648;23.332;2023-01-31T10:09:16;94226.00;;;1.99;67.05
65832;BME280;52593;42.648;23.332;2023-01-31T10:11:48;94204.72;;;1.62;68.11
65832;BME280;52593;42.648;23.332;2023-01-31T10:17:15;94220.03;;;1.17;69.84
65832;BME280;52593;42.648;23.332;2023-01-31T10:22:37;94216.47;;;1.28;69.22
65832;BME280;52593;42.648;23.332;2023-01-31T10:25:30;94204.59;;;1.53;68.24
65832;BME280;52593;42.648;23.332;2023-01-31T10:27:59;94209.69;;;1.35;67.65
65832;BME280;52593;42.648;23.332;2023-01-31T10:30:50;94206.78;;;1.48;68.78
65832;BME280;52593;42.648;23.332;2023-01-31T10:36:27;94204.84;;;1.40;68.87
65832;BME280;52593;42.648;23.332;2023-01-31T10:39:24;94202.34;;;1.39;68.11
65832;BME280;52593;42.648;23.332;2023-01-31T10:47:51;94207.88;;;1.26;68.95
65832;BME280;52593;42.648;23.332;2023-01-31T10:53:12;94207.94;;;0.95;69.99
65832;BME280;52593;42.648;23.332;2023-01-31T10:56:20;94225.44;;;1.06;70.42
65832;BME280;52593;42.648;23.332;2023-01-31T10:58:48;94231.94;;;1.02;70.26
65832;BME280;52593;42.648;23.332;2023-01-31T11:01:15;94219.97;;;0.98;70.79
65832;BME280;52593;42.648;23.332;2023-01-31T11:03:47;94222.22;;;1.02;71.39
65832;BME280;52593;42.648;23.332;2023-01-31T11:06:14;94218.06;;;1.00;71.70
65832;BME280;52593;42.648;23.332;2023-01-31T11:08:42;94221.94;;;1.05;71.24
65832;BME280;52593;42.648;23.332;2023-01-31T11:11:21;94219.50;;;1.14;71.26
65832;BME280;52593;42.648;23.332;2023-01-31T11:16:33;94211.72;;;1.12;72.43
65832;BME280;52593;42.648;23.332;2023-01-31T11:19:02;94220.06;;;1.27;71.99
65832;BME280;52593;42.648;23.332;2023-01-31T11:21:30;94238.63;;;1.16;72.19
65832;BME280;52593;42.648;23.332;2023-01-31T11:24:15;94227.16;;;0.86;72.63
65832;BME280;52593;42.648;23.332;2023-01-31T11:26:50;94244.44;;;0.79;74.11
65832;BME280;52593;42.648;23.332;2023-01-31T11:29:24;94231.94;;;0.71;74.33
65832;BME280;52593;42.648;23.332;2023-01-31T11:31:52;94233.88;;;0.69;75.35
65832;BME280;52593;42.648;23.332;2023-01-31T11:34:28;94229.03;;;0.74;75.08
65832;BME280;52593;42.648;23.332;2023-01-31T11:37:05;94231.88;;;0.61;75.53
65832;BME280;52593;42.648;23.332;2023-01-31T11:39:33;94231.16;;;0.49;76.68
65832;BME280;52593;42.648;23.332;2023-01-31T11:42:15;94222.47;;;0.38;77.15
65832;BME280;52593;42.648;23.332;2023-01-31T11:45:08;94242.13;;;0.33;77.32
65832;BME280;52593;42.648;23.332;2023-01-31T11:47:50;94224.09;;;0.29;78.61
65832;BME280;52593;42.648;23.332;2023-01-31T11:50:35;94229.22;;;0.30;78.43
65832;BME280;52593;42.648;23.332;2023-01-31T11:56:19;94223.81;;;0.32;79.25
65832;BME280;52593;42.648;23.332;2023-01-31T11:58:49;94216.31;;;0.27;79.49
65832;BME280;52593;42.648;23.332;2023-01-31T12:01:18;94224.53;;;0.13;79.40
65832;BME280;52593;42.648;23.332;2023-01-31T12:03:46;94229.56;;;0.16;80.35
65832;BME280;52593;42.648;23.332;2023-01-31T12:06:26;94221.44;;;0.29;79.47
65832;BME280;52593;42.648;23.332;2023-01-31T12:08:53;94222.47;;;0.38;79.33
65832;BME280;52593;42.648;23.332;2023-01-31T12:13:49;94223.38;;;0.27;79.85
65832;BME280;52593;42.648;23.332;2023-01-31T12:16:23;94227.63;;;0.18;79.94
65832;BME280;52593;42.648;23.332;2023-01-31T12:22:00;94228.22;;;0.22;80.26
65832;BME280;52593;42.648;23.332;2023-01-31T12:32:38;94206.56;;;0.39;78.01
65832;BME280;52593;42.648;23.332;2023-01-31T12:35:26;94222.53;;;0.47;77.45
65832;BME280;52593;42.648;23.332;2023-01-31T12:51:23;94222.88;;;0.64;75.59
65832;BME280;52593;42.648;23.332;2023-01-31T13:02:09;94233.94;;;0.58;75.78
65832;BME280;52593;42.648;23.332;2023-01-31T13:04:48;94232.22;;;0.47;76.83
65832;BME280;52593;42.648;23.332;2023-01-31T13:07:40;94229.41;;;0.39;78.06
65832;BME280;52593;42.648;23.332;2023-01-31T13:10:24;94234.94;;;0.35;77.41
65832;BME280;52593;42.648;23.332;2023-01-31T13:12:52;94222.47;;;0.38;78.02
65832;BME280;52593;42.648;23.332;2023-01-31T13:15:39;94233.97;;;0.37;76.90
65832;BME280;52593;42.648;23.332;2023-01-31T13:18:10;94232.50;;;0.44;76.72
65832;BME280;52593;42.648;23.332;2023-01-31T13:20:45;94226.31;;;0.55;76.59
65832;BME280;52593;42.648;23.332;2023-01-31T13:23:21;94231.00;;;0.51;76.22
65832;BME280;52593;42.648;23.332;2023-01-31T13:25:58;94233.91;;;0.48;75.75
65832;BME280;52593;42.648;23.332;2023-01-31T13:28:31;94241.53;;;0.51;75.67
65832;BME280;52593;42.648;23.332;2023-01-31T13:31:01;94239.22;;;0.37;75.47
65832;BME280;52593;42.648;23.332;2023-01-31T13:33:35;94245.91;;;0.41;76.04
65832;BME280;52593;42.648;23.332;2023-01-31T13:38:33;94244.50;;;0.37;76.23
65832;BME280;52593;42.648;23.332;2023-01-31T13:41:01;94243.84;;;0.44;76.82
65832;BME280;52593;42.648;23.332;2023-01-31T13:43:27;94250.34;;;0.40;77.00
65832;BME280;52593;42.648;23.332;2023-01-31T13:46:01;94236.53;;;0.48;77.13
65832;BME280;52593;42.648;23.332;2023-01-31T13:48:58;94252.66;;;0.33;77.47
65832;BME280;52593;42.648;23.332;2023-01-31T13:51:34;94250.88;;;0.34;77.81
65832;BME280;52593;42.648;23.332;2023-01-31T13:54:06;94254.50;;;0.43;76.17
65832;BME280;52593;42.648;23.332;2023-01-31T13:56:38;94257.91;;;0.33;77.38
65832;BME280;52593;42.648;23.332;2023-01-31T13:59:09;94259.28;;;0.28;76.82
65832;BME280;52593;42.648;23.332;2023-01-31T14:01:43;94255.03;;;0.37;77.47
65832;BME280;52593;42.648;23.332;2023-01-31T14:09:23;94279.34;;;0.50;75.82
65832;BME280;52593;42.648;23.332;2023-01-31T14:11:49;94263.56;;;0.50;75.42
65832;BME280;52593;42.648;23.332;2023-01-31T14:14:28;94271.28;;;0.42;75.65
65832;BME280;52593;42.648;23.332;2023-01-31T14:33:05;94264.06;;;0.44;75.52
65832;BME280;52593;42.648;23.332;2023-01-31T14:38:40;94275.00;;;0.39;75.33
65832;BME280;52593;42.648;23.332;2023-01-31T14:47:38;94293.53;;;0.38;75.11
65832;BME280;52593;42.648;23.332;2023-01-31T14:50:27;94301.19;;;0.41;74.79
65832;BME280;52593;42.648;23.332;2023-01-31T14:58:23;94310.09;;;0.28;75.40
65832;BME280;52593;42.648;23.332;2023-01-31T15:00:52;94310.34;;;0.25;75.54
65832;BME280;52593;42.648;23.332;2023-01-31T15:03:25;94319.59;;;0.20;76.44
65832;BME280;52593;42.648;23.332;2023-01-31T15:05:54;94314.44;;;0.18;75.80
65832;BME280;52593;42.648;23.332;2023-01-31T15:11:13;94320.19;;;0.23;76.44
65832;BME280;52593;42.648;23.332;2023-01-31T15:13:49;94327.34;;;0.21;77.20
65832;BME280;52593;42.648;23.332;2023-01-31T15:16:19;94332.28;;;0.14;77.13
65832;BME280;52593;42.648;23.332;2023-01-31T15:18:48;94339.75;;;0.09;77.60
65832;BME280;52593;42.648;23.332;2023-01-31T15:21:27;94335.94;;;0.02;78.48
65832;BME280;52593;42.648;23.332;2023-01-31T15:23:54;94348.38;;;0.00;78.94
65832;BME280;52593;42.648;23.332;2023-01-31T15:26:22;94347.53;;;-0.01;78.77
65832;BME280;52593;42.648;23.332;2023-01-31T15:28:51;94346.81;;;-0.03;79.29
65832;BME280;52593;42.648;23.332;2023-01-31T15:31:30;94347.31;;;-0.09;79.88
65832;BME280;52593;42.648;23.332;2023-01-31T15:34:01;94349.44;;;-0.03;79.92
65832;BME280;52593;42.648;23.332;2023-01-31T15:36:43;94346.81;;;-0.03;79.23
65832;BME280;52593;42.648;23.332;2023-01-31T15:39:22;94351.09;;;-0.02;78.96
65832;BME280;52593;42.648;23.332;2023-01-31T15:41:50;94359.00;;;-0.02;78.67
65832;BME280;52593;42.648;23.332;2023-01-31T15:44:16;94360.09;;;-0.04;78.73